createdAt,value
2022-10-24T00:00:23.840Z,63.62
2022-10-24T00:03:09.049Z,63.55
2022-10-24T00:05:53.315Z,63.94
2022-10-24T00:08:38.300Z,63.97
2022-10-24T00:11:25.666Z,65.38
2022-10-24T00:14:09.361Z,65.86
2022-10-24T00:16:53.221Z,66.76
2022-10-24T00:19:38.593Z,65.31
2022-10-24T00:22:22.355Z,64.46
2022-10-24T00:25:06.887Z,64.26
2022-10-24T00:27:50.655Z,64.25
2022-10-24T00:30:34.485Z,64.28
2022-10-24T00:33:18.354Z,64.32
2022-10-24T00:36:03.396Z,64.02
2022-10-24T00:38:47.531Z,63.40
2022-10-24T00:41:34.875Z,63.01
2022-10-24T00:44:24.007Z,63.18
2022-10-24T00:47:11.388Z,63.21
2022-10-24T00:50:01.147Z,63.31
2022-10-24T00:52:49.156Z,63.69
2022-10-24T00:55:33.363Z,65.54
2022-10-24T00:58:19.648Z,65.98
2022-10-24T01:01:04.935Z,65.51
2022-10-24T01:03:49.010Z,65.25
2022-10-24T01:06:45.664Z,65.15
2022-10-24T01:09:48.233Z,64.77
2022-10-24T01:12:42.363Z,64.80
2022-10-24T01:15:35.221Z,64.31
2022-10-24T01:18:24.471Z,64.61
2022-10-24T01:21:28.159Z,64.35
2022-10-24T01:24:39.725Z,64.27
2022-10-24T01:27:42.688Z,63.98
2022-10-24T01:30:30.695Z,65.28
2022-10-24T01:33:21.014Z,65.60
2022-10-24T01:36:09.355Z,66.10
2022-10-24T01:38:58.993Z,67.10
2022-10-24T01:41:44.571Z,67.50
2022-10-24T01:44:33.474Z,67.85
2022-10-24T01:47:23.175Z,69.11
2022-10-24T01:50:11.417Z,69.53
2022-10-24T01:52:58.307Z,69.48
2022-10-24T01:55:43.483Z,68.45
2022-10-24T01:58:27.559Z,68.99
2022-10-24T02:01:15.365Z,68.72
2022-10-24T02:04:04.983Z,69.38
2022-10-24T02:06:50.117Z,68.86
2022-10-24T02:09:36.704Z,69.37
2022-10-24T02:12:22.609Z,69.42
2022-10-24T02:15:30.611Z,69.71
2022-10-24T02:18:14.879Z,70.61
2022-10-24T02:21:09.231Z,69.41
2022-10-24T02:23:57.167Z,69.89
2022-10-24T02:26:48.058Z,69.94
2022-10-24T02:29:37.658Z,70.05
2022-10-24T02:32:28.735Z,69.65
2022-10-24T02:35:16.224Z,69.53
2022-10-24T02:38:05.756Z,68.98
2022-10-24T02:40:52.867Z,68.70
2022-10-24T02:43:37.347Z,69.03
2022-10-24T02:46:21.981Z,69.04
2022-10-24T02:49:07.106Z,68.95
2022-10-24T02:51:52.138Z,68.86
2022-10-24T02:54:37.390Z,68.79
2022-10-24T02:57:22.003Z,68.46
2022-10-24T03:00:06.931Z,68.23
2022-10-24T03:02:50.503Z,68.23
2022-10-24T03:05:34.425Z,68.51
2022-10-24T03:08:18.180Z,68.63
2022-10-24T03:11:03.368Z,69.06
2022-10-24T03:13:47.252Z,69.43
2022-10-24T03:16:31.133Z,69.10
2022-10-24T03:19:14.837Z,69.07
2022-10-24T03:21:58.644Z,69.32
2022-10-24T03:24:44.306Z,68.61
2022-10-24T03:27:40.398Z,69.82
2022-10-24T03:30:24.203Z,69.80
2022-10-24T03:33:07.910Z,69.60
2022-10-24T03:35:54.446Z,69.70
2022-10-24T03:38:38.172Z,69.78
2022-10-24T03:41:21.912Z,69.74
2022-10-24T03:44:07.054Z,69.50
2022-10-24T03:46:50.743Z,69.37
2022-10-24T03:49:34.417Z,70.20
2022-10-24T03:52:18.153Z,71.09
2022-10-24T03:55:01.983Z,70.19
2022-10-24T03:57:47.789Z,70.32
2022-10-24T04:00:38.871Z,70.29
2022-10-24T04:03:22.631Z,70.89
2022-10-24T04:06:06.628Z,71.56
2022-10-24T04:08:50.437Z,72.04
2022-10-24T04:11:34.456Z,71.20
2022-10-24T04:14:18.286Z,70.88
2022-10-24T04:17:03.532Z,70.54
2022-10-24T04:19:47.263Z,70.84
2022-10-24T04:22:31.003Z,70.58
2022-10-24T04:25:14.792Z,70.73
2022-10-24T04:27:58.530Z,70.80
2022-10-24T04:33:28.382Z,70.28
2022-10-24T04:36:12.125Z,70.37
2022-10-24T04:38:56.349Z,69.85
2022-10-24T04:41:40.346Z,70.71
2022-10-24T04:44:24.151Z,71.40
2022-10-24T04:47:07.963Z,71.52
2022-10-24T04:49:53.190Z,71.19
2022-10-24T04:52:37.202Z,71.06
2022-10-24T04:55:21.072Z,70.78
2022-10-24T04:58:05.926Z,70.10
2022-10-24T05:00:50.383Z,70.03
2022-10-24T05:03:34.267Z,69.63
2022-10-24T05:06:19.406Z,69.51
2022-10-24T05:09:03.309Z,69.64
2022-10-24T05:11:47.040Z,69.68
2022-10-24T05:14:30.876Z,69.22
2022-10-24T05:17:14.874Z,68.07
2022-10-24T05:19:58.565Z,67.30
2022-10-24T05:22:43.989Z,66.59
2022-10-24T05:25:27.902Z,66.69
2022-10-24T05:28:11.643Z,66.83
2022-10-24T05:30:55.411Z,66.49
2022-10-24T05:33:39.245Z,66.25
2022-10-24T05:36:23.046Z,66.26
2022-10-24T05:39:08.306Z,66.28
2022-10-24T05:41:54.617Z,66.24
2022-10-24T05:44:39.569Z,66.00
2022-10-24T05:47:25.724Z,65.70
2022-10-24T05:50:12.918Z,65.24
2022-10-24T05:52:56.690Z,65.42
2022-10-24T05:55:41.808Z,64.62
2022-10-24T05:58:25.490Z,65.50
2022-10-24T06:01:09.291Z,65.03
2022-10-24T06:03:53.087Z,64.94
2022-10-24T06:06:40.358Z,65.32
2022-10-24T06:09:24.116Z,65.27
2022-10-24T06:12:09.941Z,64.79
2022-10-24T06:14:57.322Z,64.79
2022-10-24T06:17:41.106Z,64.05
2022-10-24T06:20:24.939Z,63.64
2022-10-24T06:23:08.834Z,63.02
2022-10-24T06:25:52.534Z,62.86
2022-10-24T06:28:37.872Z,62.58
2022-10-24T06:31:21.939Z,62.24
2022-10-24T06:34:05.999Z,61.77
2022-10-24T06:36:49.687Z,62.08
2022-10-24T06:39:33.650Z,61.64
2022-10-24T06:42:17.412Z,61.10
2022-10-24T06:45:02.442Z,61.04
2022-10-24T06:47:51.768Z,61.02
2022-10-24T06:50:39.854Z,60.36
2022-10-24T06:53:23.562Z,60.08
2022-10-24T06:56:07.979Z,59.71
2022-10-24T06:58:51.774Z,59.58
2022-10-24T07:01:37.116Z,58.88
2022-10-24T07:04:21.133Z,58.81
2022-10-24T07:07:04.901Z,58.36
2022-10-24T07:09:54.051Z,58.60
2022-10-24T07:12:37.704Z,58.12
2022-10-24T07:15:21.366Z,57.87
2022-10-24T07:18:06.717Z,57.17
2022-10-24T07:20:50.511Z,56.58
2022-10-24T07:23:35.219Z,55.96
2022-10-24T07:26:20.021Z,56.91
2022-10-24T07:29:04.560Z,56.80
2022-10-24T07:31:49.413Z,56.79
2022-10-24T07:34:34.929Z,56.64
2022-10-24T07:37:19.994Z,55.87
2022-10-24T07:40:03.880Z,55.83
2022-10-24T07:42:48.558Z,54.97
2022-10-24T07:45:32.389Z,55.27
2022-10-24T07:48:16.179Z,55.29
2022-10-24T07:51:01.471Z,55.04
2022-10-24T07:53:45.299Z,54.66
2022-10-24T07:56:28.957Z,54.13
2022-10-24T07:59:29.865Z,54.28
2022-10-24T08:02:17.447Z,54.36
2022-10-24T08:05:01.301Z,54.04
2022-10-24T08:07:56.391Z,53.47
2022-10-24T08:10:52.237Z,53.13
2022-10-24T08:13:35.983Z,52.78
2022-10-24T08:16:22.246Z,52.45
2022-10-24T08:19:06.025Z,52.31
2022-10-24T08:21:50.394Z,52.06
2022-10-24T08:24:35.572Z,52.10
2022-10-24T08:27:19.325Z,51.47
2022-10-24T08:30:03.066Z,51.42
2022-10-24T08:32:47.199Z,50.72
2022-10-24T08:35:31.278Z,51.02
2022-10-24T08:38:14.901Z,50.21
2022-10-24T08:41:01.211Z,50.71
2022-10-24T08:43:44.947Z,50.92
2022-10-24T08:46:40.634Z,50.33
2022-10-24T08:49:30.981Z,50.46
2022-10-24T08:52:22.829Z,50.12
2022-10-24T08:55:25.075Z,49.71
2022-10-24T08:58:17.345Z,48.93
2022-10-24T09:01:04.556Z,48.52
2022-10-24T09:03:57.082Z,48.99
2022-10-24T09:06:42.173Z,47.46
2022-10-24T09:09:31.658Z,48.38
2022-10-24T09:12:18.062Z,47.81
2022-10-24T09:15:04.696Z,47.89
2022-10-24T09:17:49.607Z,47.82
2022-10-24T09:20:33.755Z,47.04
2022-10-24T09:23:18.833Z,47.41
2022-10-24T09:26:04.721Z,46.67
2022-10-24T09:28:48.382Z,45.96
2022-10-24T09:31:33.585Z,45.84
2022-10-24T09:34:18.287Z,45.59
2022-10-24T09:37:02.002Z,45.26
2022-10-24T09:39:45.641Z,46.22
2022-10-24T09:42:29.684Z,44.74
2022-10-24T09:45:29.463Z,44.25
2022-10-24T09:48:27.629Z,45.49
2022-10-24T09:51:22.987Z,44.38
2022-10-24T09:54:26.513Z,44.01
2022-10-24T09:57:16.486Z,44.46
2022-10-24T10:00:04.064Z,44.79
2022-10-24T10:03:01.978Z,44.33
2022-10-24T10:05:49.059Z,44.04
2022-10-24T10:08:35.615Z,43.46
2022-10-24T10:11:27.655Z,43.03
2022-10-24T10:14:23.131Z,42.64
2022-10-24T10:17:08.043Z,44.44
2022-10-24T10:19:53.011Z,43.30
2022-10-24T10:22:38.219Z,42.25
2022-10-24T10:25:31.074Z,42.32
2022-10-24T10:28:25.397Z,42.23
2022-10-24T10:31:11.603Z,41.17
2022-10-24T10:34:14.984Z,41.30
2022-10-24T10:37:19.551Z,40.61
2022-10-24T10:40:27.166Z,40.75
2022-10-24T10:43:27.259Z,41.28
2022-10-24T10:46:19.016Z,41.30
2022-10-24T10:49:12.115Z,40.37
2022-10-24T10:51:59.830Z,40.61
2022-10-24T10:55:13.174Z,39.92
2022-10-24T10:58:04.443Z,39.57
2022-10-24T11:00:55.412Z,40.42
2022-10-24T11:03:46.733Z,40.14
2022-10-24T11:06:42.045Z,41.51
2022-10-24T11:09:32.386Z,40.62
2022-10-24T11:12:20.878Z,40.03
2022-10-24T11:15:15.608Z,39.94
2022-10-24T11:18:05.963Z,40.04
2022-10-24T11:20:53.764Z,41.24
2022-10-24T11:26:32.891Z,41.99
2022-10-24T11:29:25.054Z,41.75
2022-10-24T11:32:19.323Z,40.56
2022-10-24T11:35:16.034Z,40.34
2022-10-24T11:38:04.062Z,39.73
2022-10-24T11:40:57.773Z,39.31
2022-10-24T11:43:46.958Z,40.82
2022-10-24T11:46:37.715Z,40.89
2022-10-24T11:49:27.044Z,40.36
2022-10-24T11:52:20.038Z,40.82
2022-10-24T11:55:09.273Z,40.89
2022-10-24T11:57:58.758Z,42.02
2022-10-24T12:01:05.160Z,42.49
2022-10-24T12:04:20.010Z,41.53
2022-10-24T12:07:38.979Z,41.98
2022-10-24T12:10:39.106Z,41.65
2022-10-24T12:13:41.599Z,42.60
2022-10-24T12:16:38.706Z,42.68
2022-10-24T12:19:23.772Z,42.98
2022-10-24T12:22:08.612Z,41.94
2022-10-24T12:25:04.877Z,41.80
2022-10-24T12:27:55.471Z,43.10
2022-10-24T12:30:39.397Z,45.25
2022-10-24T12:33:27.492Z,43.26
2022-10-24T12:36:12.210Z,43.86
2022-10-24T12:39:05.058Z,44.57
2022-10-24T12:41:50.608Z,44.69
2022-10-24T12:44:41.333Z,44.60
2022-10-24T12:47:48.458Z,44.33
2022-10-24T12:51:04.574Z,44.49
2022-10-24T12:54:16.650Z,44.06
2022-10-24T12:57:28.400Z,44.63
2022-10-24T13:00:25.156Z,45.85
2022-10-24T13:03:21.480Z,46.19
2022-10-24T13:06:13.836Z,46.03
2022-10-24T13:09:18.306Z,45.64
2022-10-24T13:12:13.690Z,45.04
2022-10-24T13:15:16.218Z,44.73
2022-10-24T13:18:25.300Z,44.09
2022-10-24T13:21:17.316Z,43.90
2022-10-24T13:24:24.658Z,44.59
2022-10-24T13:27:28.561Z,44.19
2022-10-24T13:30:28.131Z,45.02
2022-10-24T13:33:42.010Z,44.65
2022-10-24T13:36:28.557Z,44.49
2022-10-24T13:39:17.571Z,44.36
2022-10-24T13:42:04.984Z,44.00
2022-10-24T13:44:51.495Z,44.05
2022-10-24T13:47:44.288Z,43.66
2022-10-24T13:50:30.723Z,43.81
2022-10-24T13:53:26.567Z,44.13
2022-10-24T13:56:14.667Z,44.18
2022-10-24T13:58:58.504Z,43.83
2022-10-24T14:01:42.365Z,43.78
2022-10-24T14:04:29.360Z,43.94
2022-10-24T14:07:21.911Z,44.41
2022-10-24T14:10:09.652Z,45.29
2022-10-24T14:12:57.287Z,45.25
2022-10-24T14:15:49.251Z,45.92
2022-10-24T14:18:33.747Z,46.34
2022-10-24T14:21:21.227Z,46.20
2022-10-24T14:24:15.287Z,47.09
2022-10-24T14:26:59.178Z,47.11
2022-10-24T14:29:56.869Z,47.50
2022-10-24T14:32:40.601Z,47.32
2022-10-24T14:35:24.284Z,47.42
2022-10-24T14:38:14.699Z,47.39
2022-10-24T14:41:09.033Z,47.76
2022-10-24T14:43:54.399Z,48.01
2022-10-24T14:46:39.630Z,48.92
2022-10-24T14:49:33.392Z,49.02
2022-10-24T14:52:23.423Z,49.66
2022-10-24T14:55:20.748Z,50.12
2022-10-24T14:58:04.670Z,50.47
2022-10-24T15:00:48.554Z,50.36
2022-10-24T15:03:32.266Z,50.32
2022-10-24T15:06:24.887Z,50.88
2022-10-24T15:09:18.622Z,51.30
2022-10-24T15:12:04.221Z,50.66
2022-10-24T15:14:50.237Z,50.91
2022-10-24T15:17:34.005Z,51.31
2022-10-24T15:20:19.930Z,51.24
2022-10-24T15:23:04.690Z,51.77
2022-10-24T15:25:58.579Z,51.88
2022-10-24T15:28:48.424Z,51.85
2022-10-24T15:31:33.777Z,52.65
2022-10-24T15:34:18.461Z,52.68
2022-10-24T15:37:04.062Z,53.57
2022-10-24T15:39:48.169Z,53.63
2022-10-24T15:42:31.897Z,54.29
2022-10-24T15:45:18.461Z,54.29
2022-10-24T15:48:02.307Z,54.80
2022-10-24T15:50:47.531Z,55.00
2022-10-24T15:53:31.646Z,56.55
2022-10-24T15:56:15.548Z,57.76
2022-10-24T15:58:59.272Z,57.35
2022-10-24T16:01:47.621Z,58.07
2022-10-24T16:04:32.664Z,57.75
2022-10-24T16:07:16.568Z,57.75
2022-10-24T16:10:00.384Z,58.14
2022-10-24T16:12:44.530Z,58.17
2022-10-24T16:18:18.333Z,59.71
2022-10-24T16:21:02.120Z,59.52
2022-10-24T16:23:46.507Z,60.63
2022-10-24T16:26:30.238Z,60.41
2022-10-24T16:29:13.930Z,60.69
2022-10-24T16:31:57.705Z,61.31
2022-10-24T16:34:44.646Z,61.71
2022-10-24T16:37:28.362Z,61.35
2022-10-24T16:40:13.211Z,61.58
2022-10-24T16:43:02.067Z,61.12
2022-10-24T16:45:47.209Z,61.21
2022-10-24T16:48:31.487Z,61.31
2022-10-24T16:51:19.607Z,62.78
2022-10-24T16:54:04.547Z,62.81
2022-10-24T16:56:53.308Z,62.04
2022-10-24T16:59:37.494Z,61.71
2022-10-24T17:02:21.262Z,62.16
2022-10-24T17:05:05.246Z,62.23
2022-10-24T17:07:50.495Z,62.61
2022-10-24T17:10:34.252Z,62.02
2022-10-24T17:13:18.038Z,62.19
2022-10-24T17:16:01.780Z,62.68
2022-10-24T17:18:54.919Z,62.72
2022-10-24T17:21:50.972Z,62.80
2022-10-24T17:24:36.410Z,62.22
2022-10-24T17:27:21.306Z,62.57
2022-10-24T17:30:05.901Z,62.20
2022-10-24T17:32:50.312Z,62.30
2022-10-24T17:35:37.439Z,62.60
2022-10-24T17:38:36.791Z,63.91
2022-10-24T17:41:25.922Z,63.34
2022-10-24T17:44:15.645Z,62.24
2022-10-24T17:46:59.919Z,62.52
2022-10-24T17:49:44.120Z,62.81
2022-10-24T17:52:28.033Z,62.26
2022-10-24T17:55:34.406Z,61.88
2022-10-24T17:58:24.273Z,62.03
2022-10-24T18:01:08.735Z,62.35
2022-10-24T18:03:52.697Z,61.75
2022-10-24T18:06:39.465Z,61.66
2022-10-24T18:09:29.936Z,62.22
2022-10-24T18:12:13.809Z,63.36
2022-10-24T18:14:59.177Z,63.28
2022-10-24T18:17:43.494Z,62.82
2022-10-24T18:20:27.819Z,62.90
2022-10-24T18:23:11.743Z,62.89
2022-10-24T18:25:55.628Z,62.99
2022-10-24T18:28:40.445Z,63.20
2022-10-24T18:31:27.807Z,62.99
2022-10-24T18:34:11.802Z,63.40
2022-10-24T18:36:55.709Z,63.49
2022-10-24T18:39:39.709Z,63.70
2022-10-24T18:42:27.556Z,63.43
2022-10-24T18:45:15.181Z,63.36
2022-10-24T18:48:00.991Z,64.04
2022-10-24T18:50:50.050Z,62.99
2022-10-24T18:53:42.715Z,62.41
2022-10-24T18:56:26.901Z,62.21
2022-10-24T18:59:13.473Z,62.20
2022-10-24T19:02:07.967Z,61.92
2022-10-24T19:04:59.974Z,61.87
2022-10-24T19:07:44.569Z,62.55
2022-10-24T19:10:29.873Z,62.20
2022-10-24T19:13:14.354Z,62.43
2022-10-24T19:16:00.425Z,62.44
2022-10-24T19:18:53.084Z,62.13
2022-10-24T19:21:38.466Z,61.92
2022-10-24T19:24:22.482Z,63.51
2022-10-24T19:27:06.509Z,62.52
2022-10-24T19:29:50.561Z,61.86
2022-10-24T19:32:34.713Z,61.07
2022-10-24T19:35:19.038Z,61.17
2022-10-24T19:38:04.331Z,61.85
2022-10-24T19:40:49.771Z,62.06
2022-10-24T19:43:33.723Z,61.37
2022-10-24T19:46:20.322Z,61.64
2022-10-24T19:49:04.463Z,63.43
2022-10-24T19:51:48.184Z,63.52
2022-10-24T19:54:33.261Z,63.18
2022-10-24T19:57:17.660Z,63.41
2022-10-24T20:00:01.260Z,62.96
2022-10-24T20:02:55.672Z,62.55
2022-10-24T20:05:41.309Z,62.55
2022-10-24T20:08:25.027Z,62.47
2022-10-24T20:11:10.693Z,62.75
2022-10-24T20:13:54.472Z,62.39
2022-10-24T20:16:38.218Z,61.99
2022-10-24T20:19:22.094Z,61.94
2022-10-24T20:22:05.847Z,63.24
2022-10-24T20:24:49.557Z,62.92
2022-10-24T20:27:34.693Z,62.26
2022-10-24T20:30:18.627Z,62.04
2022-10-24T20:33:02.288Z,61.73
2022-10-24T20:35:46.105Z,61.77
2022-10-24T20:38:30.475Z,61.50
2022-10-24T20:41:14.329Z,61.35
2022-10-24T20:43:59.473Z,61.02
2022-10-24T20:46:43.136Z,60.91
2022-10-24T20:49:27.377Z,61.34
2022-10-24T20:55:00.311Z,62.54
2022-10-24T20:57:43.955Z,62.58
2022-10-24T21:00:29.072Z,62.13
2022-10-24T21:03:14.401Z,62.58
2022-10-24T21:05:58.134Z,62.51
2022-10-24T21:08:42.601Z,62.57
2022-10-24T21:11:28.467Z,64.45
2022-10-24T21:14:13.935Z,64.56
2022-10-24T21:16:59.009Z,63.27
2022-10-24T21:19:42.813Z,63.63
2022-10-24T21:22:28.583Z,63.76
2022-10-24T21:25:12.391Z,64.06
2022-10-24T21:27:56.139Z,64.13
2022-10-24T21:30:39.818Z,64.21
2022-10-24T21:33:24.991Z,64.37
2022-10-24T21:36:10.899Z,63.75
2022-10-24T21:38:57.132Z,63.83
2022-10-24T21:41:40.927Z,63.51
2022-10-24T21:44:25.483Z,63.84
2022-10-24T21:47:09.191Z,64.10
2022-10-24T21:49:54.337Z,63.97
2022-10-24T21:52:38.020Z,64.44
2022-10-24T21:55:21.761Z,64.27
2022-10-24T21:58:05.474Z,63.29
2022-10-24T22:00:49.287Z,63.20
2022-10-24T22:03:33.936Z,63.70
2022-10-24T22:06:20.191Z,63.06
2022-10-24T22:09:05.810Z,62.98
2022-10-24T22:11:49.728Z,62.38
2022-10-24T22:14:33.832Z,62.41
2022-10-24T22:17:17.843Z,62.13
2022-10-24T22:20:01.805Z,62.78
2022-10-24T22:22:48.690Z,63.04
2022-10-24T22:25:32.645Z,62.82
2022-10-24T22:28:17.110Z,62.55
2022-10-24T22:31:01.632Z,62.62
2022-10-24T22:33:46.135Z,63.16
2022-10-24T22:36:44.460Z,62.96
2022-10-24T22:39:30.473Z,62.71
2022-10-24T22:42:19.211Z,62.46
2022-10-24T22:45:05.278Z,62.41
2022-10-24T22:48:06.954Z,63.12
2022-10-24T22:50:53.212Z,63.60
2022-10-24T22:53:37.648Z,63.75
2022-10-24T22:56:27.731Z,63.45
2022-10-24T22:59:12.188Z,63.78
2022-10-24T23:02:04.390Z,63.77
2022-10-24T23:04:57.754Z,64.03
2022-10-24T23:07:49.073Z,64.08
2022-10-24T23:10:34.248Z,63.83
2022-10-24T23:13:20.234Z,64.73
2022-10-24T23:16:14.637Z,64.36
2022-10-24T23:18:59.073Z,64.47
2022-10-24T23:21:50.106Z,63.96
2022-10-24T23:24:34.632Z,64.48
2022-10-24T23:27:34.022Z,65.54
2022-10-24T23:30:21.853Z,65.62
2022-10-24T23:33:06.402Z,65.85
2022-10-24T23:35:52.855Z,65.72
2022-10-24T23:38:37.381Z,65.89
2022-10-24T23:41:21.958Z,66.86
2022-10-24T23:44:06.676Z,66.27
2022-10-24T23:47:01.283Z,65.94
2022-10-24T23:49:52.592Z,66.76
2022-10-24T23:52:47.231Z,67.11
2022-10-24T23:55:31.790Z,67.06
2022-10-24T23:58:15.577Z,67.20
